sensor_id;sensor_type;location;lat;lon;timestamp;P1;durP1;ratioP1;P2;durP2;ratioP2
13683;SDS011;6914;53.552;9.908;2022-12-07T00:01:42;27.10;;;18.03;;
13683;SDS011;6914;53.552;9.908;2022-12-07T00:04:11;32.10;;;17.53;;
13683;SDS011;6914;53.552;9.908;2022-12-07T00:06:40;30.13;;;17.77;;
13683;SDS011;6914;53.552;9.908;2022-12-07T00:09:09;28.20;;;17.47;;
13683;SDS011;6914;53.552;9.908;2022-12-07T00:11:37;32.47;;;17.70;;
13683;SDS011;6914;53.552;9.908;2022-12-07T00:14:06;26.60;;;17.10;;
13683;SDS011;6914;53.552;9.908;2022-12-07T00:16:37;23.60;;;17.80;;
13683;SDS011;6914;53.552;9.908;2022-12-07T00:19:04;25.40;;;15.70;;
13683;SDS011;6914;53.552;9.908;2022-12-07T00:21:32;25.00;;;18.03;;
13683;SDS011;6914;53.552;9.908;2022-12-07T00:24:01;28.20;;;16.93;;
13683;SDS011;6914;53.552;9.908;2022-12-07T00:26:29;23.60;;;16.60;;
13683;SDS011;6914;53.552;9.908;2022-12-07T00:28:57;26.77;;;17.93;;
13683;SDS011;6914;53.552;9.908;2022-12-07T00:31:26;27.37;;;16.77;;
13683;SDS011;6914;53.552;9.908;2022-12-07T00:33:56;29.83;;;16.40;;
13683;SDS011;6914;53.552;9.908;2022-12-07T00:36:24;25.40;;;17.87;;
13683;SDS011;6914;53.552;9.908;2022-12-07T00:38:51;21.80;;;15.30;;
13683;SDS011;6914;53.552;9.908;2022-12-07T00:41:19;24.30;;;15.57;;
13683;SDS011;6914;53.552;9.908;2022-12-07T00:43:48;26.40;;;16.30;;
13683;SDS011;6914;53.552;9.908;2022-12-07T00:46:16;31.33;;;16.03;;
13683;SDS011;6914;53.552;9.908;2022-12-07T00:48:45;26.90;;;16.10;;
13683;SDS011;6914;53.552;9.908;2022-12-07T00:51:15;25.07;;;14.50;;
13683;SDS011;6914;53.552;9.908;2022-12-07T00:53:43;26.33;;;15.70;;
13683;SDS011;6914;53.552;9.908;2022-12-07T00:56:12;21.33;;;14.63;;
13683;SDS011;6914;53.552;9.908;2022-12-07T00:58:40;22.63;;;14.60;;
13683;SDS011;6914;53.552;9.908;2022-12-07T01:01:08;16.97;;;13.00;;
13683;SDS011;6914;53.552;9.908;2022-12-07T01:03:36;19.20;;;14.87;;
13683;SDS011;6914;53.552;9.908;2022-12-07T01:06:03;24.40;;;14.30;;
13683;SDS011;6914;53.552;9.908;2022-12-07T01:08:32;17.53;;;12.70;;
13683;SDS011;6914;53.552;9.908;2022-12-07T01:11:00;24.27;;;13.70;;
13683;SDS011;6914;53.552;9.908;2022-12-07T01:13:28;20.27;;;13.73;;
13683;SDS011;6914;53.552;9.908;2022-12-07T01:15:56;19.53;;;12.53;;
13683;SDS011;6914;53.552;9.908;2022-12-07T01:18:25;17.77;;;13.10;;
13683;SDS011;6914;53.552;9.908;2022-12-07T01:20:59;19.07;;;12.97;;
13683;SDS011;6914;53.552;9.908;2022-12-07T01:23:27;21.40;;;13.23;;
13683;SDS011;6914;53.552;9.908;2022-12-07T01:25:56;24.30;;;13.23;;
13683;SDS011;6914;53.552;9.908;2022-12-07T01:28:24;18.03;;;12.73;;
13683;SDS011;6914;53.552;9.908;2022-12-07T01:30:55;23.37;;;11.87;;
13683;SDS011;6914;53.552;9.908;2022-12-07T01:33:27;18.80;;;13.23;;
13683;SDS011;6914;53.552;9.908;2022-12-07T01:36:00;24.80;;;13.10;;
13683;SDS011;6914;53.552;9.908;2022-12-07T01:38:27;18.80;;;12.40;;
13683;SDS011;6914;53.552;9.908;2022-12-07T01:40:56;27.13;;;11.67;;
13683;SDS011;6914;53.552;9.908;2022-12-07T01:43:26;19.60;;;12.27;;
13683;SDS011;6914;53.552;9.908;2022-12-07T01:45:54;14.20;;;10.60;;
13683;SDS011;6914;53.552;9.908;2022-12-07T01:48:22;18.40;;;12.67;;
13683;SDS011;6914;53.552;9.908;2022-12-07T01:50:52;19.83;;;12.87;;
13683;SDS011;6914;53.552;9.908;2022-12-07T01:53:22;20.50;;;13.70;;
13683;SDS011;6914;53.552;9.908;2022-12-07T01:55:52;24.23;;;13.50;;
13683;SDS011;6914;53.552;9.908;2022-12-07T01:58:26;20.47;;;13.17;;
13683;SDS011;6914;53.552;9.908;2022-12-07T02:00:59;22.80;;;13.83;;
13683;SDS011;6914;53.552;9.908;2022-12-07T02:03:27;25.70;;;12.83;;
13683;SDS011;6914;53.552;9.908;2022-12-07T02:06:10;18.80;;;12.27;;
13683;SDS011;6914;53.552;9.908;2022-12-07T02:08:40;18.97;;;12.10;;
13683;SDS011;6914;53.552;9.908;2022-12-07T02:11:09;16.43;;;10.67;;
13683;SDS011;6914;53.552;9.908;2022-12-07T02:13:39;17.63;;;11.00;;
13683;SDS011;6914;53.552;9.908;2022-12-07T02:16:11;17.83;;;10.33;;
13683;SDS011;6914;53.552;9.908;2022-12-07T02:18:50;15.80;;;11.57;;
13683;SDS011;6914;53.552;9.908;2022-12-07T02:21:28;12.63;;;9.43;;
13683;SDS011;6914;53.552;9.908;2022-12-07T02:24:06;21.27;;;10.50;;
13683;SDS011;6914;53.552;9.908;2022-12-07T02:29:52;13.77;;;9.37;;
13683;SDS011;6914;53.552;9.908;2022-12-07T02:32:24;17.87;;;9.10;;
13683;SDS011;6914;53.552;9.908;2022-12-07T02:34:55;15.80;;;8.63;;
13683;SDS011;6914;53.552;9.908;2022-12-07T02:37:33;8.83;;;7.53;;
13683;SDS011;6914;53.552;9.908;2022-12-07T02:40:04;17.90;;;8.07;;
13683;SDS011;6914;53.552;9.908;2022-12-07T02:42:36;10.67;;;6.37;;
13683;SDS011;6914;53.552;9.908;2022-12-07T02:45:09;14.63;;;6.17;;
13683;SDS011;6914;53.552;9.908;2022-12-07T02:47:38;6.00;;;5.40;;
13683;SDS011;6914;53.552;9.908;2022-12-07T02:50:07;5.20;;;4.83;;
13683;SDS011;6914;53.552;9.908;2022-12-07T02:52:35;8.47;;;4.30;;
13683;SDS011;6914;53.552;9.908;2022-12-07T02:55:02;7.07;;;4.37;;
13683;SDS011;6914;53.552;9.908;2022-12-07T03:00:21;6.27;;;4.03;;
13683;SDS011;6914;53.552;9.908;2022-12-07T03:02:50;7.43;;;3.83;;
13683;SDS011;6914;53.552;9.908;2022-12-07T03:08:18;10.00;;;5.03;;
13683;SDS011;6914;53.552;9.908;2022-12-07T03:10:54;3.90;;;3.60;;
13683;SDS011;6914;53.552;9.908;2022-12-07T03:13:25;8.60;;;3.63;;
13683;SDS011;6914;53.552;9.908;2022-12-07T03:16:00;5.27;;;3.37;;
13683;SDS011;6914;53.552;9.908;2022-12-07T03:18:31;4.10;;;2.60;;
13683;SDS011;6914;53.552;9.908;2022-12-07T03:21:04;6.00;;;3.40;;
13683;SDS011;6914;53.552;9.908;2022-12-07T03:23:33;11.67;;;3.40;;
13683;SDS011;6914;53.552;9.908;2022-12-07T03:26:01;4.10;;;3.30;;
13683;SDS011;6914;53.552;9.908;2022-12-07T03:28:31;2.83;;;2.73;;
13683;SDS011;6914;53.552;9.908;2022-12-07T03:31:02;6.17;;;2.67;;
13683;SDS011;6914;53.552;9.908;2022-12-07T03:33:36;9.07;;;2.40;;
13683;SDS011;6914;53.552;9.908;2022-12-07T03:36:08;4.83;;;2.03;;
13683;SDS011;6914;53.552;9.908;2022-12-07T03:38:38;6.40;;;2.30;;
13683;SDS011;6914;53.552;9.908;2022-12-07T03:41:07;7.97;;;2.40;;
13683;SDS011;6914;53.552;9.908;2022-12-07T03:43:39;2.23;;;2.07;;
13683;SDS011;6914;53.552;9.908;2022-12-07T03:46:11;2.53;;;2.33;;
13683;SDS011;6914;53.552;9.908;2022-12-07T03:48:46;3.60;;;2.20;;
13683;SDS011;6914;53.552;9.908;2022-12-07T03:51:21;5.23;;;2.10;;
13683;SDS011;6914;53.552;9.908;2022-12-07T03:53:53;2.10;;;1.67;;
13683;SDS011;6914;53.552;9.908;2022-12-07T03:56:25;10.00;;;2.33;;
13683;SDS011;6914;53.552;9.908;2022-12-07T03:58:53;7.03;;;2.27;;
13683;SDS011;6914;53.552;9.908;2022-12-07T04:01:22;3.80;;;1.63;;
13683;SDS011;6914;53.552;9.908;2022-12-07T04:03:51;3.77;;;1.80;;
13683;SDS011;6914;53.552;9.908;2022-12-07T04:06:18;3.67;;;2.40;;
13683;SDS011;6914;53.552;9.908;2022-12-07T04:08:45;7.90;;;1.77;;
13683;SDS011;6914;53.552;9.908;2022-12-07T04:11:12;4.27;;;2.30;;
13683;SDS011;6914;53.552;9.908;2022-12-07T04:13:39;2.60;;;2.00;;
13683;SDS011;6914;53.552;9.908;2022-12-07T04:16:23;9.00;;;2.00;;
13683;SDS011;6914;53.552;9.908;2022-12-07T04:18:53;9.50;;;1.60;;
13683;SDS011;6914;53.552;9.908;2022-12-07T04:21:20;2.90;;;1.87;;
13683;SDS011;6914;53.552;9.908;2022-12-07T04:23:46;2.30;;;1.67;;
13683;SDS011;6914;53.552;9.908;2022-12-07T04:26:13;3.67;;;2.53;;
13683;SDS011;6914;53.552;9.908;2022-12-07T04:28:40;1.80;;;1.70;;
13683;SDS011;6914;53.552;9.908;2022-12-07T04:31:07;4.70;;;2.70;;
13683;SDS011;6914;53.552;9.908;2022-12-07T04:33:35;2.23;;;1.87;;
13683;SDS011;6914;53.552;9.908;2022-12-07T04:36:02;3.67;;;1.40;;
13683;SDS011;6914;53.552;9.908;2022-12-07T04:38:29;4.40;;;1.93;;
13683;SDS011;6914;53.552;9.908;2022-12-07T04:40:56;2.80;;;2.13;;
13683;SDS011;6914;53.552;9.908;2022-12-07T04:43:22;12.57;;;2.17;;
13683;SDS011;6914;53.552;9.908;2022-12-07T04:45:49;21.77;;;3.07;;
13683;SDS011;6914;53.552;9.908;2022-12-07T04:48:19;6.60;;;2.07;;
13683;SDS011;6914;53.552;9.908;2022-12-07T04:50:48;3.97;;;1.63;;
13683;SDS011;6914;53.552;9.908;2022-12-07T04:53:16;4.00;;;1.70;;
13683;SDS011;6914;53.552;9.908;2022-12-07T04:55:43;6.33;;;2.40;;
13683;SDS011;6914;53.552;9.908;2022-12-07T04:58:10;3.20;;;2.90;;
13683;SDS011;6914;53.552;9.908;2022-12-07T05:00:37;8.20;;;3.10;;
13683;SDS011;6914;53.552;9.908;2022-12-07T05:03:04;6.67;;;3.37;;
13683;SDS011;6914;53.552;9.908;2022-12-07T05:05:31;3.60;;;3.30;;
13683;SDS011;6914;53.552;9.908;2022-12-07T05:07:59;5.13;;;3.33;;
13683;SDS011;6914;53.552;9.908;2022-12-07T05:10:25;4.80;;;3.40;;
13683;SDS011;6914;53.552;9.908;2022-12-07T05:12:52;8.23;;;2.90;;
13683;SDS011;6914;53.552;9.908;2022-12-07T05:15:19;7.13;;;2.77;;
13683;SDS011;6914;53.552;9.908;2022-12-07T05:17:46;4.90;;;2.60;;
13683;SDS011;6914;53.552;9.908;2022-12-07T05:20:13;7.77;;;2.90;;
13683;SDS011;6914;53.552;9.908;2022-12-07T05:22:40;2.60;;;2.40;;
13683;SDS011;6914;53.552;9.908;2022-12-07T05:25:08;9.73;;;2.93;;
13683;SDS011;6914;53.552;9.908;2022-12-07T05:27:35;8.00;;;2.03;;
13683;SDS011;6914;53.552;9.908;2022-12-07T05:30:02;2.50;;;2.17;;
13683;SDS011;6914;53.552;9.908;2022-12-07T05:32:30;7.10;;;2.33;;
13683;SDS011;6914;53.552;9.908;2022-12-07T05:34:56;3.33;;;2.70;;
13683;SDS011;6914;53.552;9.908;2022-12-07T05:37:23;2.30;;;2.20;;
13683;SDS011;6914;53.552;9.908;2022-12-07T05:39:50;3.33;;;2.90;;
13683;SDS011;6914;53.552;9.908;2022-12-07T05:42:20;2.70;;;2.50;;
13683;SDS011;6914;53.552;9.908;2022-12-07T05:44:47;2.83;;;2.37;;
13683;SDS011;6914;53.552;9.908;2022-12-07T05:47:14;2.40;;;2.30;;
13683;SDS011;6914;53.552;9.908;2022-12-07T05:49:41;4.03;;;2.27;;
13683;SDS011;6914;53.552;9.908;2022-12-07T05:52:08;2.70;;;2.17;;
13683;SDS011;6914;53.552;9.908;2022-12-07T05:54:35;2.97;;;2.77;;
13683;SDS011;6914;53.552;9.908;2022-12-07T05:57:02;3.57;;;2.90;;
13683;SDS011;6914;53.552;9.908;2022-12-07T05:59:30;2.63;;;2.40;;
13683;SDS011;6914;53.552;9.908;2022-12-07T06:01:56;2.47;;;2.37;;
13683;SDS011;6914;53.552;9.908;2022-12-07T06:04:25;2.80;;;2.60;;
13683;SDS011;6914;53.552;9.908;2022-12-07T06:06:52;2.47;;;2.27;;
13683;SDS011;6914;53.552;9.908;2022-12-07T06:09:20;6.70;;;2.47;;
13683;SDS011;6914;53.552;9.908;2022-12-07T06:11:48;2.97;;;2.77;;
13683;SDS011;6914;53.552;9.908;2022-12-07T06:14:34;2.60;;;2.40;;
13683;SDS011;6914;53.552;9.908;2022-12-07T06:17:01;6.60;;;2.63;;
13683;SDS011;6914;53.552;9.908;2022-12-07T06:19:28;2.90;;;2.50;;
13683;SDS011;6914;53.552;9.908;2022-12-07T06:21:54;3.50;;;3.20;;
13683;SDS011;6914;53.552;9.908;2022-12-07T06:24:22;2.80;;;2.47;;
13683;SDS011;6914;53.552;9.908;2022-12-07T06:26:49;2.73;;;2.60;;
13683;SDS011;6914;53.552;9.908;2022-12-07T06:29:19;3.90;;;3.00;;
13683;SDS011;6914;53.552;9.908;2022-12-07T06:31:48;5.03;;;2.43;;
13683;SDS011;6914;53.552;9.908;2022-12-07T06:34:16;2.20;;;2.07;;
13683;SDS011;6914;53.552;9.908;2022-12-07T06:36:44;3.43;;;2.57;;
13683;SDS011;6914;53.552;9.908;2022-12-07T06:39:16;12.23;;;2.50;;
13683;SDS011;6914;53.552;9.908;2022-12-07T06:41:43;3.10;;;2.17;;
13683;SDS011;6914;53.552;9.908;2022-12-07T06:44:11;7.80;;;2.40;;
13683;SDS011;6914;53.552;9.908;2022-12-07T06:46:38;3.33;;;2.10;;
13683;SDS011;6914;53.552;9.908;2022-12-07T06:49:06;3.40;;;2.17;;
13683;SDS011;6914;53.552;9.908;2022-12-07T06:51:33;2.30;;;2.20;;
13683;SDS011;6914;53.552;9.908;2022-12-07T06:54:01;3.13;;;2.30;;
13683;SDS011;6914;53.552;9.908;2022-12-07T06:56:28;2.63;;;2.43;;
13683;SDS011;6914;53.552;9.908;2022-12-07T06:58:55;9.13;;;1.93;;
13683;SDS011;6914;53.552;9.908;2022-12-07T07:01:22;3.90;;;2.43;;
13683;SDS011;6914;53.552;9.908;2022-12-07T07:03:48;1.73;;;1.63;;
13683;SDS011;6914;53.552;9.908;2022-12-07T07:06:19;1.77;;;1.67;;
13683;SDS011;6914;53.552;9.908;2022-12-07T07:08:46;4.20;;;2.27;;
13683;SDS011;6914;53.552;9.908;2022-12-07T07:11:13;5.23;;;1.87;;
13683;SDS011;6914;53.552;9.908;2022-12-07T07:13:40;6.87;;;2.10;;
13683;SDS011;6914;53.552;9.908;2022-12-07T07:16:07;2.87;;;1.93;;
13683;SDS011;6914;53.552;9.908;2022-12-07T07:18:35;3.37;;;1.93;;
13683;SDS011;6914;53.552;9.908;2022-12-07T07:21:02;2.70;;;1.80;;
13683;SDS011;6914;53.552;9.908;2022-12-07T07:23:31;2.90;;;2.53;;
13683;SDS011;6914;53.552;9.908;2022-12-07T07:25:58;5.13;;;1.77;;
13683;SDS011;6914;53.552;9.908;2022-12-07T07:28:25;2.90;;;1.70;;
13683;SDS011;6914;53.552;9.908;2022-12-07T07:30:52;5.30;;;1.47;;
13683;SDS011;6914;53.552;9.908;2022-12-07T07:33:18;2.70;;;1.93;;
13683;SDS011;6914;53.552;9.908;2022-12-07T07:35:45;6.80;;;1.87;;
13683;SDS011;6914;53.552;9.908;2022-12-07T07:38:12;6.87;;;2.20;;
13683;SDS011;6914;53.552;9.908;2022-12-07T07:40:40;3.80;;;1.80;;
13683;SDS011;6914;53.552;9.908;2022-12-07T07:43:07;3.57;;;1.27;;
13683;SDS011;6914;53.552;9.908;2022-12-07T07:45:34;5.73;;;1.40;;
13683;SDS011;6914;53.552;9.908;2022-12-07T07:48:00;4.40;;;1.47;;
13683;SDS011;6914;53.552;9.908;2022-12-07T07:50:27;1.20;;;1.20;;
13683;SDS011;6914;53.552;9.908;2022-12-07T07:52:54;7.23;;;1.70;;
13683;SDS011;6914;53.552;9.908;2022-12-07T07:55:22;2.73;;;1.20;;
13683;SDS011;6914;53.552;9.908;2022-12-07T07:57:51;3.10;;;0.93;;
13683;SDS011;6914;53.552;9.908;2022-12-07T08:00:18;1.00;;;0.90;;
13683;SDS011;6914;53.552;9.908;2022-12-07T08:02:45;7.00;;;1.50;;
13683;SDS011;6914;53.552;9.908;2022-12-07T08:05:12;3.90;;;1.50;;
13683;SDS011;6914;53.552;9.908;2022-12-07T08:07:39;1.40;;;1.10;;
13683;SDS011;6914;53.552;9.908;2022-12-07T08:10:07;7.27;;;1.57;;
13683;SDS011;6914;53.552;9.908;2022-12-07T08:12:36;2.93;;;1.53;;
13683;SDS011;6914;53.552;9.908;2022-12-07T08:15:25;3.90;;;1.37;;
13683;SDS011;6914;53.552;9.908;2022-12-07T08:17:53;9.03;;;1.70;;
13683;SDS011;6914;53.552;9.908;2022-12-07T08:20:20;2.97;;;1.83;;
13683;SDS011;6914;53.552;9.908;2022-12-07T08:22:47;3.50;;;1.43;;
13683;SDS011;6914;53.552;9.908;2022-12-07T08:25:14;4.20;;;1.60;;
13683;SDS011;6914;53.552;9.908;2022-12-07T08:27:41;3.90;;;1.20;;
13683;SDS011;6914;53.552;9.908;2022-12-07T08:30:09;8.10;;;1.67;;
13683;SDS011;6914;53.552;9.908;2022-12-07T08:32:37;1.13;;;0.80;;
13683;SDS011;6914;53.552;9.908;2022-12-07T08:35:04;2.00;;;1.67;;
13683;SDS011;6914;53.552;9.908;2022-12-07T08:37:32;6.30;;;2.00;;
13683;SDS011;6914;53.552;9.908;2022-12-07T08:39:59;3.23;;;1.23;;
13683;SDS011;6914;53.552;9.908;2022-12-07T08:42:26;1.40;;;1.30;;
13683;SDS011;6914;53.552;9.908;2022-12-07T08:44:54;2.10;;;1.13;;
13683;SDS011;6914;53.552;9.908;2022-12-07T08:47:21;1.97;;;1.87;;
13683;SDS011;6914;53.552;9.908;2022-12-07T08:49:51;3.53;;;1.33;;
13683;SDS011;6914;53.552;9.908;2022-12-07T08:52:19;1.63;;;1.13;;
13683;SDS011;6914;53.552;9.908;2022-12-07T08:54:46;4.37;;;2.70;;
13683;SDS011;6914;53.552;9.908;2022-12-07T08:57:14;7.17;;;1.80;;
13683;SDS011;6914;53.552;9.908;2022-12-07T08:59:41;3.73;;;1.70;;
13683;SDS011;6914;53.552;9.908;2022-12-07T09:02:07;2.60;;;1.20;;
13683;SDS011;6914;53.552;9.908;2022-12-07T09:04:34;2.63;;;1.60;;
13683;SDS011;6914;53.552;9.908;2022-12-07T09:07:03;6.73;;;2.00;;
13683;SDS011;6914;53.552;9.908;2022-12-07T09:09:31;3.23;;;1.70;;
13683;SDS011;6914;53.552;9.908;2022-12-07T09:11:59;2.87;;;1.60;;
13683;SDS011;6914;53.552;9.908;2022-12-07T09:14:26;2.90;;;1.47;;
13683;SDS011;6914;53.552;9.908;2022-12-07T09:16:53;7.03;;;1.33;;
13683;SDS011;6914;53.552;9.908;2022-12-07T09:19:20;7.57;;;1.90;;
13683;SDS011;6914;53.552;9.908;2022-12-07T09:21:47;3.40;;;1.33;;
13683;SDS011;6914;53.552;9.908;2022-12-07T09:24:15;1.63;;;1.53;;
13683;SDS011;6914;53.552;9.908;2022-12-07T09:26:42;4.43;;;1.77;;
13683;SDS011;6914;53.552;9.908;2022-12-07T09:29:09;2.70;;;1.87;;
13683;SDS011;6914;53.552;9.908;2022-12-07T09:31:36;14.33;;;2.47;;
13683;SDS011;6914;53.552;9.908;2022-12-07T09:34:03;11.40;;;2.23;;
13683;SDS011;6914;53.552;9.908;2022-12-07T09:36:31;3.40;;;0.83;;
13683;SDS011;6914;53.552;9.908;2022-12-07T09:38:58;3.27;;;2.00;;
13683;SDS011;6914;53.552;9.908;2022-12-07T09:41:26;1.93;;;1.83;;
13683;SDS011;6914;53.552;9.908;2022-12-07T09:43:58;4.10;;;1.80;;
13683;SDS011;6914;53.552;9.908;2022-12-07T09:46:29;2.30;;;2.10;;
13683;SDS011;6914;53.552;9.908;2022-12-07T09:49:04;3.27;;;1.50;;
13683;SDS011;6914;53.552;9.908;2022-12-07T09:51:35;3.10;;;1.87;;
13683;SDS011;6914;53.552;9.908;2022-12-07T09:54:02;2.73;;;1.47;;
13683;SDS011;6914;53.552;9.908;2022-12-07T09:56:31;2.83;;;1.13;;
13683;SDS011;6914;53.552;9.908;2022-12-07T09:58:58;2.50;;;1.17;;
13683;SDS011;6914;53.552;9.908;2022-12-07T10:01:27;1.67;;;0.90;;
13683;SDS011;6914;53.552;9.908;2022-12-07T10:03:59;5.20;;;1.30;;
13683;SDS011;6914;53.552;9.908;2022-12-07T10:06:33;8.40;;;1.27;;
13683;SDS011;6914;53.552;9.908;2022-12-07T10:09:00;1.90;;;0.97;;
13683;SDS011;6914;53.552;9.908;2022-12-07T10:11:27;2.73;;;1.13;;
13683;SDS011;6914;53.552;9.908;2022-12-07T10:13:56;4.00;;;1.43;;
13683;SDS011;6914;53.552;9.908;2022-12-07T10:16:38;3.27;;;0.73;;
13683;SDS011;6914;53.552;9.908;2022-12-07T10:21:59;3.23;;;1.10;;
13683;SDS011;6914;53.552;9.908;2022-12-07T10:24:31;0.80;;;0.60;;
13683;SDS011;6914;53.552;9.908;2022-12-07T10:26:58;1.10;;;1.03;;
13683;SDS011;6914;53.552;9.908;2022-12-07T10:29:29;4.43;;;0.90;;
13683;SDS011;6914;53.552;9.908;2022-12-07T10:31:58;4.07;;;1.20;;
13683;SDS011;6914;53.552;9.908;2022-12-07T10:34:27;1.93;;;1.10;;
13683;SDS011;6914;53.552;9.908;2022-12-07T10:37:07;1.73;;;0.90;;
13683;SDS011;6914;53.552;9.908;2022-12-07T10:39:42;2.30;;;0.90;;
13683;SDS011;6914;53.552;9.908;2022-12-07T10:42:15;1.63;;;0.70;;
13683;SDS011;6914;53.552;9.908;2022-12-07T10:44:45;12.00;;;1.00;;
13683;SDS011;6914;53.552;9.908;2022-12-07T10:47:17;3.50;;;0.83;;
13683;SDS011;6914;53.552;9.908;2022-12-07T10:50:13;1.60;;;0.83;;
13683;SDS011;6914;53.552;9.908;2022-12-07T10:52:58;0.80;;;0.80;;
13683;SDS011;6914;53.552;9.908;2022-12-07T10:55:50;3.33;;;1.30;;
13683;SDS011;6914;53.552;9.908;2022-12-07T10:58:37;1.90;;;0.90;;
13683;SDS011;6914;53.552;9.908;2022-12-07T11:01:21;5.87;;;1.67;;
13683;SDS011;6914;53.552;9.908;2022-12-07T11:03:54;4.43;;;1.20;;
13683;SDS011;6914;53.552;9.908;2022-12-07T11:06:42;5.63;;;0.73;;
13683;SDS011;6914;53.552;9.908;2022-12-07T11:09:26;11.50;;;1.00;;
13683;SDS011;6914;53.552;9.908;2022-12-07T11:12:14;4.97;;;1.17;;
13683;SDS011;6914;53.552;9.908;2022-12-07T11:14:49;4.83;;;1.13;;
13683;SDS011;6914;53.552;9.908;2022-12-07T11:17:24;6.07;;;2.27;;
13683;SDS011;6914;53.552;9.908;2022-12-07T11:20:01;11.33;;;1.40;;
13683;SDS011;6914;53.552;9.908;2022-12-07T11:22:40;5.33;;;1.53;;
13683;SDS011;6914;53.552;9.908;2022-12-07T11:25:23;6.13;;;1.53;;
13683;SDS011;6914;53.552;9.908;2022-12-07T11:28:02;3.93;;;1.17;;
13683;SDS011;6914;53.552;9.908;2022-12-07T11:30:46;2.47;;;0.90;;
13683;SDS011;6914;53.552;9.908;2022-12-07T11:33:26;4.00;;;1.10;;
13683;SDS011;6914;53.552;9.908;2022-12-07T11:36:02;13.33;;;1.57;;
13683;SDS011;6914;53.552;9.908;2022-12-07T11:38:42;8.80;;;1.30;;
13683;SDS011;6914;53.552;9.908;2022-12-07T11:41:12;12.03;;;1.50;;
13683;SDS011;6914;53.552;9.908;2022-12-07T11:43:42;3.83;;;1.20;;
13683;SDS011;6914;53.552;9.908;2022-12-07T11:46:19;6.07;;;1.10;;
13683;SDS011;6914;53.552;9.908;2022-12-07T11:48:57;6.87;;;1.23;;
13683;SDS011;6914;53.552;9.908;2022-12-07T11:51:29;7.20;;;1.40;;
13683;SDS011;6914;53.552;9.908;2022-12-07T11:53:59;6.23;;;1.10;;
13683;SDS011;6914;53.552;9.908;2022-12-07T11:56:31;10.33;;;1.43;;
13683;SDS011;6914;53.552;9.908;2022-12-07T11:59:04;5.30;;;0.97;;
13683;SDS011;6914;53.552;9.908;2022-12-07T12:01:41;16.90;;;1.60;;
13683;SDS011;6914;53.552;9.908;2022-12-07T12:04:23;12.37;;;1.40;;
13683;SDS011;6914;53.552;9.908;2022-12-07T12:06:57;4.20;;;1.20;;
13683;SDS011;6914;53.552;9.908;2022-12-07T12:09:25;3.93;;;1.40;;
13683;SDS011;6914;53.552;9.908;2022-12-07T12:15:16;4.80;;;1.40;;
13683;SDS011;6914;53.552;9.908;2022-12-07T12:18:06;3.03;;;1.03;;
13683;SDS011;6914;53.552;9.908;2022-12-07T12:21:09;4.03;;;1.27;;
13683;SDS011;6914;53.552;9.908;2022-12-07T12:23:40;6.00;;;1.80;;
13683;SDS011;6914;53.552;9.908;2022-12-07T12:26:13;4.90;;;1.20;;
13683;SDS011;6914;53.552;9.908;2022-12-07T12:28:49;13.00;;;1.20;;
13683;SDS011;6914;53.552;9.908;2022-12-07T12:31:31;3.37;;;1.57;;
13683;SDS011;6914;53.552;9.908;2022-12-07T12:34:02;5.80;;;1.20;;
13683;SDS011;6914;53.552;9.908;2022-12-07T12:36:45;23.67;;;1.70;;
13683;SDS011;6914;53.552;9.908;2022-12-07T12:39:13;6.90;;;1.50;;
13683;SDS011;6914;53.552;9.908;2022-12-07T12:44:42;4.57;;;1.30;;
13683;SDS011;6914;53.552;9.908;2022-12-07T12:47:43;15.97;;;1.40;;
13683;SDS011;6914;53.552;9.908;2022-12-07T12:50:21;13.50;;;1.97;;
13683;SDS011;6914;53.552;9.908;2022-12-07T12:52:52;3.23;;;1.03;;
13683;SDS011;6914;53.552;9.908;2022-12-07T12:58:31;5.27;;;1.40;;
13683;SDS011;6914;53.552;9.908;2022-12-07T13:10:36;3.23;;;1.27;;
13683;SDS011;6914;53.552;9.908;2022-12-07T13:13:30;5.10;;;1.17;;
13683;SDS011;6914;53.552;9.908;2022-12-07T13:22:38;7.50;;;1.43;;
13683;SDS011;6914;53.552;9.908;2022-12-07T13:25:31;9.37;;;1.30;;
13683;SDS011;6914;53.552;9.908;2022-12-07T13:28:08;11.50;;;1.40;;
13683;SDS011;6914;53.552;9.908;2022-12-07T13:30:43;7.40;;;1.23;;
13683;SDS011;6914;53.552;9.908;2022-12-07T13:33:17;19.97;;;1.27;;
13683;SDS011;6914;53.552;9.908;2022-12-07T13:35:45;7.83;;;1.13;;
13683;SDS011;6914;53.552;9.908;2022-12-07T13:38:28;4.00;;;1.63;;
13683;SDS011;6914;53.552;9.908;2022-12-07T13:41:01;6.63;;;1.50;;
13683;SDS011;6914;53.552;9.908;2022-12-07T13:43:30;1.53;;;1.10;;
13683;SDS011;6914;53.552;9.908;2022-12-07T13:45:57;9.20;;;1.00;;
13683;SDS011;6914;53.552;9.908;2022-12-07T13:48:28;9.50;;;1.10;;
13683;SDS011;6914;53.552;9.908;2022-12-07T13:50:59;5.80;;;1.30;;
13683;SDS011;6914;53.552;9.908;2022-12-07T13:53:27;5.73;;;1.20;;
13683;SDS011;6914;53.552;9.908;2022-12-07T13:55:55;2.60;;;1.20;;
13683;SDS011;6914;53.552;9.908;2022-12-07T13:58:24;2.63;;;0.97;;
13683;SDS011;6914;53.552;9.908;2022-12-07T14:00:52;3.00;;;1.00;;
13683;SDS011;6914;53.552;9.908;2022-12-07T14:03:32;2.80;;;0.73;;
13683;SDS011;6914;53.552;9.908;2022-12-07T14:06:22;8.80;;;1.33;;
13683;SDS011;6914;53.552;9.908;2022-12-07T14:09:05;4.77;;;0.97;;
13683;SDS011;6914;53.552;9.908;2022-12-07T14:11:33;5.47;;;1.33;;
13683;SDS011;6914;53.552;9.908;2022-12-07T14:14:02;6.30;;;1.30;;
13683;SDS011;6914;53.552;9.908;2022-12-07T14:16:31;9.80;;;1.60;;
13683;SDS011;6914;53.552;9.908;2022-12-07T14:19:04;9.83;;;0.97;;
13683;SDS011;6914;53.552;9.908;2022-12-07T14:22:05;3.90;;;1.00;;
13683;SDS011;6914;53.552;9.908;2022-12-07T14:24:37;5.50;;;0.93;;
13683;SDS011;6914;53.552;9.908;2022-12-07T14:27:16;4.53;;;1.17;;
13683;SDS011;6914;53.552;9.908;2022-12-07T14:29:46;7.23;;;1.00;;
13683;SDS011;6914;53.552;9.908;2022-12-07T14:32:18;2.53;;;1.03;;
13683;SDS011;6914;53.552;9.908;2022-12-07T14:34:55;1.93;;;0.90;;
13683;SDS011;6914;53.552;9.908;2022-12-07T14:37:23;5.83;;;1.10;;
13683;SDS011;6914;53.552;9.908;2022-12-07T14:39:51;2.00;;;0.90;;
13683;SDS011;6914;53.552;9.908;2022-12-07T14:42:20;5.30;;;0.90;;
13683;SDS011;6914;53.552;9.908;2022-12-07T14:44:52;4.43;;;1.00;;
13683;SDS011;6914;53.552;9.908;2022-12-07T14:47:19;5.77;;;1.00;;
13683;SDS011;6914;53.552;9.908;2022-12-07T14:49:46;4.13;;;0.87;;
13683;SDS011;6914;53.552;9.908;2022-12-07T14:52:13;3.87;;;1.23;;
13683;SDS011;6914;53.552;9.908;2022-12-07T14:54:43;7.00;;;1.23;;
13683;SDS011;6914;53.552;9.908;2022-12-07T14:57:10;4.30;;;1.00;;
13683;SDS011;6914;53.552;9.908;2022-12-07T14:59:38;1.60;;;0.93;;
13683;SDS011;6914;53.552;9.908;2022-12-07T15:02:09;5.23;;;0.90;;
13683;SDS011;6914;53.552;9.908;2022-12-07T15:04:37;9.53;;;1.00;;
13683;SDS011;6914;53.552;9.908;2022-12-07T15:07:05;6.80;;;1.00;;
13683;SDS011;6914;53.552;9.908;2022-12-07T15:09:36;1.60;;;0.80;;
13683;SDS011;6914;53.552;9.908;2022-12-07T15:12:03;4.20;;;1.00;;
13683;SDS011;6914;53.552;9.908;2022-12-07T15:14:31;4.17;;;1.60;;
13683;SDS011;6914;53.552;9.908;2022-12-07T15:16:58;7.33;;;1.30;;
13683;SDS011;6914;53.552;9.908;2022-12-07T15:19:26;1.97;;;0.90;;
13683;SDS011;6914;53.552;9.908;2022-12-07T15:21:53;2.10;;;0.73;;
13683;SDS011;6914;53.552;9.908;2022-12-07T15:24:21;6.90;;;0.90;;
13683;SDS011;6914;53.552;9.908;2022-12-07T15:26:49;2.43;;;0.90;;
13683;SDS011;6914;53.552;9.908;2022-12-07T15:29:25;17.93;;;0.93;;
13683;SDS011;6914;53.552;9.908;2022-12-07T15:31:55;11.33;;;1.10;;
13683;SDS011;6914;53.552;9.908;2022-12-07T15:34:23;2.53;;;1.03;;
13683;SDS011;6914;53.552;9.908;2022-12-07T15:36:53;2.77;;;1.00;;
13683;SDS011;6914;53.552;9.908;2022-12-07T15:39:20;2.83;;;1.03;;
13683;SDS011;6914;53.552;9.908;2022-12-07T15:41:48;3.70;;;1.57;;
13683;SDS011;6914;53.552;9.908;2022-12-07T15:44:21;1.87;;;1.20;;
13683;SDS011;6914;53.552;9.908;2022-12-07T15:47:05;4.63;;;0.93;;
13683;SDS011;6914;53.552;9.908;2022-12-07T15:49:32;7.60;;;1.40;;
13683;SDS011;6914;53.552;9.908;2022-12-07T15:52:01;8.63;;;1.10;;
13683;SDS011;6914;53.552;9.908;2022-12-07T15:54:28;5.80;;;1.70;;